Main page
METAR-TAF:

METAR-TAF

Airports :

Roscommon County–Blodgett Memorial Airport

Houghton Lake, Michigan, United States

latitude: 44-21-04N, longitude: 084-40-27W, elevation: 1148 ft

Current weather observation

The report was made 1 hour and 11 minutes ago, at 01:53 UTC
Wind 5 mph from the West/Southwest
Temperature 61°F
Humidity 77%
Pressure 29.79 in. Hg
Visibility: 10 miles
Few clouds at a height of 4400 ft
Broken clouds at a height of 5500 ft
Overcast at a height of 8500 ft

METAR: KHTL 230153Z AUTO 24004KT 10SM FEW044 BKN055 OVC085 16/12 A2979 RMK AO2 SLP085 T01610117

Time: 23:04 (03:04 UTC)


TAF: missing

Weather observations and forecasts of more than 4000 airports (METAR and TAF reports).

The available stations are represented by yellow and red dots on the map.

Hover mouse over dot to see the name of the station.

Then click to see weather observations and forecasts.

To change the map : click on the green buttons with a black cross to zoom in, on the green button with a dash to zoom out, or on the green arrows for adjacent maps.


METAR-TAF: